createdAt,value
2017-05-29T00:00:25.790Z,21.79
2017-05-29T00:01:25.815Z,21.69
2017-05-29T00:02:25.538Z,21.67
2017-05-29T00:03:25.568Z,21.58
2017-05-29T00:04:25.593Z,21.69
2017-05-29T00:05:25.619Z,21.75
2017-05-29T00:06:25.952Z,21.61
2017-05-29T00:07:26.033Z,21.53
2017-05-29T00:08:26.010Z,21.46
2017-05-29T00:09:26.036Z,21.54
2017-05-29T00:10:40.680Z,21.54
2017-05-29T00:11:25.790Z,21.5
2017-05-29T00:12:40.732Z,21.52
2017-05-29T00:13:26.153Z,21.64
2017-05-29T00:14:26.170Z,21.59
2017-05-29T00:15:40.816Z,21.58
2017-05-29T00:16:26.225Z,21.58
2017-05-29T00:17:26.250Z,21.58
2017-05-29T00:18:26.279Z,21.58
2017-05-29T00:19:26.305Z,21.47
2017-05-29T00:20:26.332Z,21.46
2017-05-29T00:22:26.389Z,21.56
2017-05-29T00:23:26.420Z,21.54
2017-05-29T00:24:26.443Z,21.52
2017-05-29T00:25:41.088Z,21.58
2017-05-29T00:26:41.114Z,21.59
2017-05-29T00:27:26.528Z,21.59
2017-05-29T00:28:26.563Z,21.61
2017-05-29T00:29:26.582Z,21.67
2017-05-29T00:30:26.303Z,21.59
2017-05-29T00:31:41.249Z,21.59
2017-05-29T00:32:26.663Z,21.59
2017-05-29T00:33:26.689Z,21.56
2017-05-29T00:34:26.413Z,21.67
2017-05-29T00:36:26.767Z,21.65
2017-05-29T00:38:26.895Z,21.47
2017-05-29T00:39:26.852Z,21.47
2017-05-29T00:41:26.903Z,21.56
2017-05-29T00:42:26.932Z,21.35
2017-05-29T00:43:26.958Z,21.37
2017-05-29T00:44:26.986Z,21.5
2017-05-29T00:45:26.707Z,21.49
2017-05-29T00:46:27.037Z,21.42
2017-05-29T00:47:41.380Z,21.53
2017-05-29T00:48:27.094Z,21.5
2017-05-29T00:49:27.121Z,21.49
2017-05-29T00:50:27.149Z,21.53
2017-05-29T00:51:27.176Z,21.58
2017-05-29T00:52:27.201Z,21.64
2017-05-29T00:53:27.232Z,21.67
2017-05-29T00:54:27.263Z,21.75
2017-05-29T00:56:27.311Z,21.96
2017-05-29T00:57:27.338Z,22.03
2017-05-29T00:58:27.364Z,22.17
2017-05-29T00:59:27.393Z,22.03
2017-05-29T01:00:27.419Z,22.12
2017-05-29T01:01:27.447Z,22.05
2017-05-29T01:02:27.469Z,22.09
2017-05-29T01:03:42.115Z,22.02
2017-05-29T01:04:27.221Z,22.12
2017-05-29T01:05:27.248Z,22.12
2017-05-29T01:06:27.273Z,22.06
2017-05-29T01:08:27.642Z,22.02
2017-05-29T01:10:27.685Z,21.94
2017-05-29T01:12:27.437Z,22.05
2017-05-29T01:13:27.772Z,22.03
2017-05-29T01:14:27.493Z,21.96
2017-05-29T01:15:27.217Z,21.91
2017-05-29T01:16:27.848Z,21.91
2017-05-29T01:17:27.879Z,21.9
2017-05-29T01:18:42.518Z,21.92
2017-05-29T01:19:27.933Z,21.91
2017-05-29T01:20:27.962Z,21.68
2017-05-29T01:21:27.679Z,21.71
2017-05-29T01:22:28.009Z,21.74
2017-05-29T01:23:28.037Z,21.59
2017-05-29T01:25:28.092Z,21.62
2017-05-29T01:28:28.171Z,21.47
2017-05-29T01:29:42.815Z,21.47
2017-05-29T01:30:28.229Z,21.44
2017-05-29T01:31:42.872Z,21.38
2017-05-29T01:32:27.977Z,21.32
2017-05-29T01:33:28.308Z,21.47
2017-05-29T01:35:28.358Z,21.42
2017-05-29T01:36:28.387Z,21.42
2017-05-29T01:37:28.462Z,21.22
2017-05-29T01:38:28.439Z,21.32
2017-05-29T01:40:28.492Z,21.22
2017-05-29T01:41:28.517Z,21.19
2017-05-29T01:42:28.544Z,21.22
2017-05-29T01:43:28.572Z,21.1
2017-05-29T01:44:28.299Z,21.01
2017-05-29T01:45:28.629Z,21.1
2017-05-29T01:46:28.346Z,21.04
2017-05-29T01:47:28.680Z,21.04
2017-05-29T01:48:28.707Z,20.95
2017-05-29T01:49:28.734Z,20.99
2017-05-29T01:50:43.375Z,20.91
2017-05-29T01:51:28.786Z,20.91
2017-05-29T01:52:28.815Z,20.94
2017-05-29T01:53:28.847Z,20.91
2017-05-29T01:54:28.566Z,20.98
2017-05-29T01:55:28.908Z,20.91
2017-05-29T01:58:28.974Z,20.82
2017-05-29T01:59:43.620Z,20.82
2017-05-29T02:01:29.052Z,20.84
2017-05-29T02:02:29.088Z,20.77
2017-05-29T02:03:29.108Z,20.67
2017-05-29T02:04:29.139Z,20.72
2017-05-29T02:05:29.160Z,20.76
2017-05-29T02:06:43.807Z,20.66
2017-05-29T02:07:29.212Z,20.72
2017-05-29T02:08:29.245Z,20.73
2017-05-29T02:09:29.268Z,20.64
2017-05-29T02:10:29.290Z,20.67
2017-05-29T02:11:29.014Z,20.67
2017-05-29T02:12:29.347Z,20.62
2017-05-29T02:13:29.373Z,20.7
2017-05-29T02:14:29.450Z,20.69
2017-05-29T02:15:29.424Z,20.7
2017-05-29T02:17:29.481Z,20.69
2017-05-29T02:18:44.123Z,20.7
2017-05-29T02:19:29.537Z,20.72
2017-05-29T02:20:29.558Z,20.74
2017-05-29T02:21:29.282Z,20.73
2017-05-29T02:22:44.229Z,20.64
2017-05-29T02:23:29.638Z,20.74
2017-05-29T02:24:29.667Z,20.62
2017-05-29T02:25:29.709Z,20.67
2017-05-29T02:26:29.716Z,20.67
2017-05-29T02:27:29.748Z,20.61
2017-05-29T02:28:29.771Z,20.57
2017-05-29T02:29:29.805Z,20.61
2017-05-29T02:31:44.470Z,20.59
2017-05-29T02:32:29.878Z,20.58
2017-05-29T02:33:29.659Z,20.54
2017-05-29T02:34:29.933Z,20.62
2017-05-29T02:35:29.962Z,20.7
2017-05-29T02:36:29.988Z,20.72
2017-05-29T02:37:30.009Z,20.61
2017-05-29T02:38:44.652Z,20.62
2017-05-29T02:39:30.063Z,20.55
2017-05-29T02:40:30.089Z,20.61
2017-05-29T02:41:29.810Z,20.58
2017-05-29T02:42:29.836Z,20.54
2017-05-29T02:43:30.174Z,20.61
2017-05-29T02:44:29.890Z,20.59
2017-05-29T02:45:30.219Z,20.58
2017-05-29T02:46:29.944Z,20.51
2017-05-29T02:47:30.274Z,20.55
2017-05-29T02:48:29.996Z,20.5
2017-05-29T02:49:30.043Z,20.41
2017-05-29T02:50:30.351Z,20.5
2017-05-29T02:51:30.077Z,20.42
2017-05-29T02:52:30.406Z,20.39
2017-05-29T02:53:45.049Z,20.43
2017-05-29T02:55:30.487Z,20.47
2017-05-29T02:56:30.514Z,20.35
2017-05-29T02:57:30.540Z,20.5
2017-05-29T02:58:30.263Z,20.5
2017-05-29T02:59:29.994Z,20.51
2017-05-29T03:00:30.625Z,20.5
2017-05-29T03:01:30.643Z,20.57
2017-05-29T03:02:30.669Z,20.58
2017-05-29T03:03:30.699Z,20.58
2017-05-29T03:04:30.726Z,20.59
2017-05-29T03:05:30.449Z,20.61
2017-05-29T03:06:45.393Z,20.58
2017-05-29T03:07:30.498Z,20.57
2017-05-29T03:08:30.830Z,20.69
2017-05-29T03:09:30.906Z,20.72
2017-05-29T03:10:30.577Z,20.69
2017-05-29T03:11:30.906Z,20.7
2017-05-29T03:12:30.633Z,20.69
2017-05-29T03:14:30.984Z,20.59
2017-05-29T03:15:31.011Z,20.58
2017-05-29T03:17:31.064Z,20.59
2017-05-29T03:20:30.843Z,20.69
2017-05-29T03:21:45.788Z,20.59
2017-05-29T03:22:45.815Z,20.61
2017-05-29T03:23:31.224Z,20.57
2017-05-29T03:24:31.252Z,20.62
2017-05-29T03:25:45.895Z,20.55
2017-05-29T03:26:31.302Z,20.47
2017-05-29T03:27:31.330Z,20.51
2017-05-29T03:28:31.355Z,20.51
2017-05-29T03:29:31.384Z,20.38
2017-05-29T03:30:31.410Z,20.41
2017-05-29T03:32:31.463Z,20.51
2017-05-29T03:33:46.110Z,20.42
2017-05-29T03:34:31.214Z,20.51
2017-05-29T03:35:31.543Z,20.58
2017-05-29T03:36:46.185Z,20.61
2017-05-29T03:37:31.292Z,20.66
2017-05-29T03:38:31.626Z,20.58
2017-05-29T03:39:46.263Z,20.73
2017-05-29T03:40:31.673Z,20.72
2017-05-29T03:41:46.318Z,20.61
2017-05-29T03:42:31.731Z,20.59
2017-05-29T03:43:31.753Z,20.5
2017-05-29T03:44:31.476Z,20.48
2017-05-29T03:45:31.806Z,20.5
2017-05-29T03:46:31.831Z,20.35
2017-05-29T03:47:31.860Z,20.48
2017-05-29T03:48:31.887Z,20.48
2017-05-29T03:49:31.914Z,20.54
2017-05-29T03:50:31.936Z,20.62
2017-05-29T03:52:31.992Z,20.61
2017-05-29T03:53:32.020Z,20.62
2017-05-29T03:54:32.043Z,20.64
2017-05-29T03:55:31.767Z,20.62
2017-05-29T03:56:31.793Z,20.72
2017-05-29T03:57:46.742Z,20.82
2017-05-29T03:58:31.848Z,20.89
2017-05-29T03:59:31.880Z,20.95
2017-05-29T04:00:32.204Z,20.98
2017-05-29T04:01:31.927Z,21.07
2017-05-29T04:02:31.954Z,21.04
2017-05-29T04:03:32.585Z,21.12
2017-05-29T04:04:32.310Z,21.22
2017-05-29T04:05:32.034Z,21.14
2017-05-29T04:06:32.360Z,21.22
2017-05-29T04:07:32.388Z,21.29
2017-05-29T04:08:32.417Z,21.43
2017-05-29T04:09:32.443Z,21.68
2017-05-29T04:10:32.470Z,22.15
2017-05-29T04:11:32.496Z,22.64
2017-05-29T04:12:32.522Z,23.01
2017-05-29T04:13:47.169Z,23.33
2017-05-29T04:14:32.630Z,23.47
2017-05-29T04:15:32.603Z,23.38
2017-05-29T04:16:32.631Z,23.32
2017-05-29T04:17:32.660Z,23.33
2017-05-29T04:18:32.691Z,23.22
2017-05-29T04:19:32.720Z,23.17
2017-05-29T04:20:32.743Z,23.16
2017-05-29T04:23:32.831Z,23.1
2017-05-29T04:24:47.474Z,23
2017-05-29T04:25:32.881Z,23.12
2017-05-29T04:26:32.911Z,23.27
2017-05-29T04:27:32.941Z,23.33
2017-05-29T04:28:47.282Z,23.42
2017-05-29T04:29:32.995Z,23.57
2017-05-29T04:30:33.022Z,23.75
2017-05-29T04:31:33.051Z,24.12
2017-05-29T04:32:33.079Z,24.43
2017-05-29T04:33:32.807Z,24.85
2017-05-29T04:37:32.986Z,26.54
2017-05-29T04:38:33.266Z,27.04
2017-05-29T04:39:33.282Z,27.43
2017-05-29T04:40:33.008Z,27.7
2017-05-29T04:41:33.341Z,28
2017-05-29T04:42:33.372Z,28.21
2017-05-29T04:43:33.406Z,28.77
2017-05-29T04:45:33.467Z,29.28
2017-05-29T04:46:33.550Z,29.37
2017-05-29T04:50:33.625Z,29.98
2017-05-29T04:51:33.657Z,30.15
2017-05-29T04:52:33.695Z,30.77
2017-05-29T04:53:33.723Z,31.07
2017-05-29T04:54:33.758Z,31.1
2017-05-29T04:55:33.789Z,31.28
2017-05-29T04:56:48.441Z,31.57
2017-05-29T04:57:33.858Z,31.86
2017-05-29T04:58:33.893Z,31.76
2017-05-29T04:59:33.925Z,31.7
2017-05-29T05:00:48.577Z,31.85
2017-05-29T05:01:33.993Z,32.07
2017-05-29T05:02:34.025Z,32.44
2017-05-29T05:03:34.059Z,32.87
2017-05-29T05:04:34.094Z,33.21
2017-05-29T05:05:34.128Z,33.09
2017-05-29T05:06:34.176Z,33.01
2017-05-29T05:07:34.201Z,32.85
2017-05-29T05:08:34.235Z,33.03
2017-05-29T05:09:33.967Z,32.94
2017-05-29T05:10:34.002Z,33.19
2017-05-29T05:12:34.374Z,33.56
2017-05-29T05:13:34.112Z,33.49
2017-05-29T05:14:34.143Z,33.78
2017-05-29T05:15:34.179Z,34.08
2017-05-29T05:16:49.137Z,34.34
2017-05-29T05:17:34.556Z,34.52
2017-05-29T05:18:34.591Z,34.53
2017-05-29T05:19:34.628Z,34.78
2017-05-29T05:20:34.358Z,34.99
2017-05-29T05:21:34.697Z,35.31
2017-05-29T05:22:34.429Z,35.25
2017-05-29T05:23:34.466Z,35.02
2017-05-29T05:24:34.506Z,34.92
2017-05-29T05:26:34.878Z,34.75
2017-05-29T05:27:49.232Z,34.47
2017-05-29T05:28:34.952Z,33.87
2017-05-29T05:29:34.989Z,33.98
2017-05-29T05:30:34.779Z,33.93
2017-05-29T05:31:34.456Z,34.06
2017-05-29T05:32:49.715Z,33.16
2017-05-29T05:33:34.835Z,33.56
2017-05-29T05:34:34.868Z,34.03
2017-05-29T05:35:34.904Z,33.82
2017-05-29T05:36:34.635Z,33.53
2017-05-29T05:37:35.279Z,33.14
2017-05-29T05:39:35.352Z,33.5
2017-05-29T05:40:35.489Z,33.11
2017-05-29T05:41:35.428Z,33.59
2017-05-29T05:42:50.084Z,33.87
2017-05-29T05:43:35.195Z,33.22
2017-05-29T05:44:35.532Z,33.41
2017-05-29T05:45:35.268Z,33.84
2017-05-29T05:46:35.606Z,34.25
2017-05-29T05:47:35.340Z,33.61
2017-05-29T05:48:50.301Z,33.34
2017-05-29T05:49:35.723Z,33.19
2017-05-29T05:50:35.457Z,33.47
2017-05-29T05:51:35.799Z,33.32
2017-05-29T05:53:35.564Z,34.02
2017-05-29T05:54:35.298Z,34.61
2017-05-29T05:55:35.640Z,34.73
2017-05-29T05:56:36.056Z,34.82
2017-05-29T05:57:36.017Z,34.99
2017-05-29T05:58:36.050Z,35.23
2017-05-29T05:59:36.092Z,35.56
2017-05-29T06:00:35.827Z,35.58
2017-05-29T06:01:36.167Z,35.66
2017-05-29T06:02:35.900Z,36.75
2017-05-29T06:03:50.861Z,36.29
2017-05-29T06:04:36.278Z,36.31
2017-05-29T06:05:36.012Z,36.39
2017-05-29T06:06:36.356Z,36.81
2017-05-29T06:07:36.394Z,36.93
2017-05-29T06:08:36.437Z,36.93
2017-05-29T06:09:36.471Z,36.68
2017-05-29T06:11:36.246Z,36.76
2017-05-29T06:12:36.584Z,36.57
2017-05-29T06:13:36.321Z,37.06
2017-05-29T06:14:36.664Z,37.27
2017-05-29T06:15:51.015Z,37.2
2017-05-29T06:16:51.356Z,36.68
2017-05-29T06:17:36.775Z,36.93
2017-05-29T06:18:36.818Z,37.18
2017-05-29T06:19:36.854Z,36.94
2017-05-29T06:20:36.893Z,36.07
2017-05-29T06:21:36.931Z,35.84
2017-05-29T06:22:36.971Z,36.99
2017-05-29T06:23:37.010Z,36.94
2017-05-29T06:24:37.053Z,35.56
2017-05-29T06:25:36.784Z,35.06
2017-05-29T06:26:37.125Z,35.66
2017-05-29T06:27:37.164Z,36.17
2017-05-29T06:28:37.209Z,36.41
2017-05-29T06:29:37.248Z,36.69
2017-05-29T06:30:37.280Z,36.22
2017-05-29T06:31:37.320Z,36.9
2017-05-29T06:32:37.366Z,37.85
2017-05-29T06:33:37.403Z,38.06
2017-05-29T06:34:37.442Z,38.32
2017-05-29T06:35:52.099Z,36.85
2017-05-29T06:36:37.519Z,35.11
2017-05-29T06:37:37.563Z,34.35
2017-05-29T06:38:37.604Z,34.75
2017-05-29T06:39:37.639Z,34.92
2017-05-29T06:40:37.676Z,35.41
2017-05-29T06:41:37.717Z,35.56
2017-05-29T06:42:37.756Z,35.41
2017-05-29T06:43:37.802Z,35.8
2017-05-29T06:44:37.836Z,35.68
2017-05-29T06:45:37.874Z,35.81
2017-05-29T06:46:37.943Z,36.2
2017-05-29T06:47:52.573Z,36.91
2017-05-29T06:48:37.387Z,37.03
2017-05-29T06:49:38.030Z,36
2017-05-29T06:50:38.072Z,35.4
2017-05-29T06:51:52.731Z,36.03
2017-05-29T06:52:38.149Z,36.76
2017-05-29T06:53:38.191Z,36.72
2017-05-29T06:54:38.230Z,37.43
2017-05-29T06:55:38.268Z,37.63
2017-05-29T06:56:38.303Z,37.63
2017-05-29T06:57:38.347Z,37.86
2017-05-29T06:58:38.390Z,38.31
2017-05-29T07:00:38.465Z,37.25
2017-05-29T07:01:38.508Z,36.75
2017-05-29T07:02:53.165Z,36.59
2017-05-29T07:03:38.281Z,36.94
2017-05-29T07:04:38.626Z,37.49
2017-05-29T07:05:38.666Z,37.1
2017-05-29T07:06:38.706Z,37.36
2017-05-29T07:07:53.411Z,37.78
2017-05-29T07:08:38.488Z,37.97
2017-05-29T07:09:38.825Z,38.06
2017-05-29T07:10:38.859Z,38.12
2017-05-29T07:11:38.596Z,37.62
2017-05-29T07:12:38.638Z,37.43
2017-05-29T07:13:38.983Z,36.99
2017-05-29T07:14:38.717Z,37.22
2017-05-29T07:15:39.060Z,37.13
2017-05-29T07:16:38.797Z,37.41
2017-05-29T07:17:39.150Z,37.72
2017-05-29T07:18:38.877Z,36.69
2017-05-29T07:19:39.222Z,36.57
2017-05-29T07:20:53.881Z,37.07
2017-05-29T07:21:39.308Z,37.37
2017-05-29T07:22:39.341Z,37.22
2017-05-29T07:23:54.000Z,35.92
2017-05-29T07:24:39.169Z,35.28
2017-05-29T07:25:39.157Z,34.81
2017-05-29T07:26:39.503Z,34.85
2017-05-29T07:27:39.546Z,34.32
2017-05-29T07:28:39.581Z,34.87
2017-05-29T07:29:39.315Z,35.41
2017-05-29T07:30:39.354Z,35.82
2017-05-29T07:32:39.794Z,36.69
2017-05-29T07:33:39.777Z,37.72
2017-05-29T07:34:39.828Z,37.78
2017-05-29T07:35:39.856Z,37.81
2017-05-29T07:36:39.895Z,38.07
2017-05-29T07:37:39.936Z,37.88
2017-05-29T07:38:54.597Z,38.5
2017-05-29T07:39:39.719Z,38.61
2017-05-29T07:40:39.752Z,38.49
2017-05-29T07:41:39.792Z,38.54
2017-05-29T07:43:40.178Z,38.78
2017-05-29T07:44:39.910Z,38.87
2017-05-29T07:46:40.297Z,39.57
2017-05-29T07:47:40.340Z,38.78
2017-05-29T07:48:40.378Z,38.6
2017-05-29T07:49:40.415Z,37.63
2017-05-29T07:50:40.453Z,37.96
2017-05-29T07:51:55.114Z,38.23
2017-05-29T07:52:40.535Z,38.52
2017-05-29T07:53:40.581Z,38.4
2017-05-29T07:54:40.619Z,38.4
2017-05-29T07:55:40.658Z,38.56
2017-05-29T07:56:40.710Z,38.6
2017-05-29T07:57:40.733Z,38.6
2017-05-29T07:58:40.775Z,38.26
2017-05-29T07:59:40.508Z,38.78
2017-05-29T08:01:40.896Z,39.69
2017-05-29T08:02:40.627Z,39.59
2017-05-29T08:04:55.684Z,40.06
2017-05-29T08:05:41.052Z,40.22
2017-05-29T08:06:41.107Z,40.34
2017-05-29T08:07:41.136Z,40.23
2017-05-29T08:08:41.182Z,40.38
2017-05-29T08:09:41.215Z,40.32
2017-05-29T08:10:55.923Z,38.9
2017-05-29T08:11:41.297Z,39.17
2017-05-29T08:12:41.336Z,39.14
2017-05-29T08:13:41.382Z,38.66
2017-05-29T08:14:41.415Z,38.71
2017-05-29T08:15:41.504Z,38.42
2017-05-29T08:16:41.695Z,38.59
2017-05-29T08:17:41.533Z,37.18
2017-05-29T08:19:41.307Z,37.75
2017-05-29T08:20:41.652Z,38.31
2017-05-29T08:21:41.689Z,38.35
2017-05-29T08:22:41.733Z,38.71
2017-05-29T08:23:41.466Z,39.09
2017-05-29T08:24:41.504Z,38.84
2017-05-29T08:25:41.848Z,38.25
2017-05-29T08:26:56.509Z,37.86
2017-05-29T08:27:41.955Z,38.15
2017-05-29T08:28:42.024Z,38.56
2017-05-29T08:30:42.065Z,39.01
2017-05-29T08:31:42.085Z,38.96
2017-05-29T08:32:42.127Z,38.66
2017-05-29T08:33:42.163Z,38.57
2017-05-29T08:34:42.208Z,38.68
2017-05-29T08:36:42.283Z,38.68
2017-05-29T08:37:42.374Z,38.78
2017-05-29T08:38:56.983Z,39.03
2017-05-29T08:39:42.103Z,39.43
2017-05-29T08:40:42.442Z,39.21
2017-05-29T08:41:42.478Z,39.62
2017-05-29T08:42:57.147Z,39.97
2017-05-29T08:43:42.557Z,39.81
2017-05-29T08:44:42.600Z,38.32
2017-05-29T08:45:42.641Z,38.03
2017-05-29T08:46:42.676Z,38.78
2017-05-29T08:48:42.764Z,38.65
2017-05-29T08:49:42.799Z,38.66
2017-05-29T08:50:42.830Z,38.03
2017-05-29T08:51:42.868Z,37.32
2017-05-29T08:52:57.278Z,37.6
2017-05-29T08:53:42.952Z,37.74
2017-05-29T08:54:42.987Z,38.09
2017-05-29T08:55:43.027Z,38.4
2017-05-29T08:56:43.066Z,38.6
2017-05-29T08:57:43.101Z,38
2017-05-29T08:58:57.760Z,38.04
2017-05-29T08:59:43.182Z,38.28
2017-05-29T09:00:43.225Z,38.37
2017-05-29T09:01:43.266Z,38.32
2017-05-29T09:02:43.297Z,38.74
2017-05-29T09:03:43.335Z,38.59
2017-05-29T09:04:43.372Z,37.69
2017-05-29T09:05:43.411Z,38.22
2017-05-29T09:06:43.450Z,38.23
2017-05-29T09:07:43.492Z,37.63
2017-05-29T09:08:43.528Z,37.37
2017-05-29T09:09:43.565Z,37.56
2017-05-29T09:10:43.658Z,37.62
2017-05-29T09:11:43.644Z,37.17
2017-05-29T09:12:43.683Z,37.91
2017-05-29T09:13:58.342Z,38.63
2017-05-29T09:14:43.760Z,38.81
2017-05-29T09:15:43.801Z,38.91
2017-05-29T09:16:43.833Z,39.04
2017-05-29T09:17:43.569Z,38.71
2017-05-29T09:18:43.607Z,38.63
2017-05-29T09:19:43.698Z,38.63
2017-05-29T09:22:44.061Z,38.57
2017-05-29T09:23:44.102Z,38.47
2017-05-29T09:24:44.143Z,38.35
2017-05-29T09:25:43.874Z,38.38
2017-05-29T09:26:58.835Z,38.18
2017-05-29T09:27:43.948Z,38.12
2017-05-29T09:28:43.985Z,37.78
2017-05-29T09:29:44.329Z,37.56
2017-05-29T09:30:44.366Z,37.86
2017-05-29T09:31:44.404Z,38.16
2017-05-29T09:32:44.443Z,38.69
2017-05-29T09:33:44.475Z,39.26
2017-05-29T09:34:44.575Z,39.22
2017-05-29T09:35:44.552Z,38.68
2017-05-29T09:36:44.290Z,38.6
2017-05-29T09:37:44.628Z,38.72
2017-05-29T09:38:44.362Z,39.18
2017-05-29T09:39:44.705Z,39.41
2017-05-29T09:40:59.373Z,39.36
2017-05-29T09:41:44.784Z,39.17
2017-05-29T09:42:44.820Z,39.21
2017-05-29T09:43:44.555Z,38.35
2017-05-29T09:44:44.587Z,37.22
2017-05-29T09:45:59.550Z,36.01
2017-05-29T09:46:44.973Z,35.97
2017-05-29T09:47:44.701Z,35.68
2017-05-29T09:48:44.740Z,35.84
2017-05-29T09:49:45.081Z,36.03
2017-05-29T09:50:45.115Z,35.71
2017-05-29T09:51:45.157Z,35.5
2017-05-29T09:52:44.958Z,35.41
2017-05-29T09:53:45.248Z,35.44
2017-05-29T09:54:45.266Z,35.93
2017-05-29T09:55:45.302Z,36.31
2017-05-29T09:56:59.958Z,36.71
2017-05-29T09:57:45.074Z,36.51
2017-05-29T09:58:45.411Z,36.8
2017-05-29T10:00:00.066Z,35.81
2017-05-29T10:00:45.483Z,36.29
2017-05-29T10:02:00.139Z,36.91
2017-05-29T10:02:45.559Z,36.84
2017-05-29T10:03:45.596Z,36.6
2017-05-29T10:04:45.628Z,36.94
2017-05-29T10:05:45.666Z,37.36
2017-05-29T10:06:45.703Z,37.84
2017-05-29T10:07:45.742Z,37.66
2017-05-29T10:08:45.471Z,37.56
2017-05-29T10:09:45.809Z,36.99
2017-05-29T10:11:45.884Z,36.81
2017-05-29T10:12:45.925Z,36.75
2017-05-29T10:13:45.955Z,36.88
2017-05-29T10:14:45.995Z,36.62
2017-05-29T10:15:46.027Z,36.87
2017-05-29T10:16:46.069Z,37.06
2017-05-29T10:18:00.719Z,37.06
2017-05-29T10:18:45.837Z,36.84
2017-05-29T10:19:46.173Z,36.85
2017-05-29T10:20:46.208Z,36.78
2017-05-29T10:21:46.244Z,36.87
2017-05-29T10:22:46.281Z,36.72
2017-05-29T10:23:46.317Z,36.85
2017-05-29T10:24:46.357Z,36.68
2017-05-29T10:27:46.158Z,36.6
2017-05-29T10:28:46.547Z,36.59
2017-05-29T10:29:46.538Z,36.57
2017-05-29T10:30:46.269Z,36.47
2017-05-29T10:31:46.609Z,36.39
2017-05-29T10:32:46.643Z,36.01
2017-05-29T10:34:01.295Z,35.96
2017-05-29T10:34:46.714Z,35.43
2017-05-29T10:35:46.446Z,34.72
2017-05-29T10:36:46.784Z,34.77
2017-05-29T10:37:46.822Z,34.77
2017-05-29T10:38:46.855Z,34.34
2017-05-29T10:39:46.891Z,34.3
2017-05-29T10:40:46.927Z,34.21
2017-05-29T10:43:47.034Z,33.57
2017-05-29T10:44:47.081Z,33.45
2017-05-29T10:45:47.104Z,33
2017-05-29T10:46:47.147Z,32.79
2017-05-29T10:47:46.874Z,33.12
2017-05-29T10:49:01.834Z,33.34
2017-05-29T10:49:46.948Z,33.57
2017-05-29T10:50:47.079Z,34.09
2017-05-29T10:51:47.319Z,34.09
2017-05-29T10:52:47.353Z,33.88
2017-05-29T10:53:47.390Z,33.97
2017-05-29T10:54:47.423Z,33.91
2017-05-29T10:55:47.458Z,34.17
2017-05-29T10:57:47.532Z,34.02
2017-05-29T10:58:47.261Z,34.05
2017-05-29T10:59:47.599Z,34.28
2017-05-29T11:00:47.635Z,34.19
2017-05-29T11:02:02.289Z,34.24
2017-05-29T11:02:47.706Z,34
2017-05-29T11:03:47.738Z,33.54
2017-05-29T11:04:47.775Z,33.47
2017-05-29T11:05:47.812Z,33.54
2017-05-29T11:06:47.846Z,33.9
2017-05-29T11:07:47.577Z,33.94
2017-05-29T11:08:47.912Z,34.02
2017-05-29T11:09:47.952Z,34.22
2017-05-29T11:10:47.983Z,34.21
2017-05-29T11:11:47.411Z,34.46
2017-05-29T11:12:48.352Z,34.21
2017-05-29T11:13:48.086Z,33.44
2017-05-29T11:15:03.045Z,33.01
2017-05-29T11:15:47.854Z,33.03
2017-05-29T11:16:47.888Z,33.21
2017-05-29T11:17:48.227Z,33.65
2017-05-29T11:18:48.265Z,33.91
2017-05-29T11:19:48.327Z,33.84
2017-05-29T11:21:02.950Z,33.41
2017-05-29T11:21:48.367Z,33.66
2017-05-29T11:22:48.403Z,33.75
2017-05-29T11:23:48.434Z,33.19
2017-05-29T11:24:48.520Z,32.88
2017-05-29T11:25:48.201Z,33.19
2017-05-29T11:26:48.537Z,33.35
2017-05-29T11:27:48.570Z,33.49
2017-05-29T11:28:48.605Z,33.69
2017-05-29T11:32:48.744Z,32.92
2017-05-29T11:33:48.779Z,33.34
2017-05-29T11:35:03.430Z,33.54
2017-05-29T11:35:48.846Z,33.47
2017-05-29T11:37:03.501Z,33.35
2017-05-29T11:37:48.613Z,33.44
2017-05-29T11:38:48.948Z,33.71
2017-05-29T11:39:48.982Z,33.9
2017-05-29T11:40:49.018Z,33.72
2017-05-29T11:41:49.098Z,33.87
2017-05-29T11:42:49.084Z,34.06
2017-05-29T11:43:49.118Z,34.12
2017-05-29T11:44:49.156Z,33.9
2017-05-29T11:45:48.881Z,33.95
2017-05-29T11:46:49.221Z,33.94
2017-05-29T11:47:49.255Z,34
2017-05-29T11:48:49.289Z,33.97
2017-05-29T11:50:03.943Z,34.08
2017-05-29T11:50:49.358Z,33.91
2017-05-29T11:51:49.397Z,33.81
2017-05-29T11:53:04.045Z,33.82
2017-05-29T11:53:49.459Z,33.93
2017-05-29T11:54:48.887Z,33.86
2017-05-29T11:55:49.528Z,33.98
2017-05-29T11:56:49.559Z,33.98
2017-05-29T11:57:49.291Z,34.02
2017-05-29T11:58:49.630Z,33.84
2017-05-29T11:59:49.663Z,33.82
2017-05-29T12:00:49.395Z,33.73
2017-05-29T12:01:49.731Z,33.12
2017-05-29T12:02:49.769Z,32.89
2017-05-29T12:03:49.830Z,32.88
2017-05-29T12:04:49.833Z,33.42
2017-05-29T12:05:49.565Z,33.73
2017-05-29T12:06:49.899Z,33.59
2017-05-29T12:07:49.934Z,33.82
2017-05-29T12:09:04.588Z,33.84
2017-05-29T12:09:50.004Z,34.02
2017-05-29T12:10:50.050Z,33.71
2017-05-29T12:11:50.071Z,33.59
2017-05-29T12:12:50.118Z,33.87
2017-05-29T12:13:50.151Z,33.59
2017-05-29T12:14:50.172Z,33.56
2017-05-29T12:15:50.220Z,33.41
2017-05-29T12:16:49.942Z,33.42
2017-05-29T12:18:50.003Z,33.26
2017-05-29T12:20:50.379Z,33.54
2017-05-29T12:21:50.115Z,33.32
2017-05-29T12:22:50.443Z,33.18
2017-05-29T12:24:05.097Z,33.45
2017-05-29T12:24:50.511Z,33.63
2017-05-29T12:25:50.240Z,33.42
2017-05-29T12:26:50.581Z,33.63
2017-05-29T12:27:50.308Z,33.45
2017-05-29T12:28:50.343Z,33.54
2017-05-29T12:29:50.375Z,33.14
2017-05-29T12:30:50.713Z,32.67
2017-05-29T12:31:50.443Z,32.82
2017-05-29T12:33:50.815Z,32.77
2017-05-29T12:34:50.850Z,32.79
2017-05-29T12:35:50.882Z,33.04
2017-05-29T12:36:50.614Z,33.09
2017-05-29T12:37:50.947Z,33.28
2017-05-29T12:38:50.982Z,32.96
2017-05-29T12:39:51.019Z,32.97
2017-05-29T12:40:51.050Z,33.23
2017-05-29T12:41:51.083Z,33
2017-05-29T12:42:51.118Z,33.03
2017-05-29T12:43:51.148Z,32.67
2017-05-29T12:44:51.183Z,32.77
2017-05-29T12:45:51.217Z,33
2017-05-29T12:46:51.250Z,33.14
2017-05-29T12:47:50.979Z,33.04
2017-05-29T12:50:51.083Z,32.67
2017-05-29T12:51:51.418Z,32.59
2017-05-29T12:53:06.070Z,32.06
2017-05-29T12:53:51.485Z,31.88
2017-05-29T12:54:51.519Z,32.1
2017-05-29T12:56:06.172Z,32.14
2017-05-29T12:56:51.635Z,32.28
2017-05-29T12:57:51.366Z,32.41
2017-05-29T12:58:51.650Z,32.22
2017-05-29T12:59:51.686Z,32.19
2017-05-29T13:00:51.721Z,32.48
2017-05-29T13:01:51.452Z,32.85
2017-05-29T13:02:51.789Z,32.87
2017-05-29T13:03:51.819Z,33.12
2017-05-29T13:04:51.854Z,33.38
2017-05-29T13:05:51.884Z,33.32
2017-05-29T13:06:51.917Z,33
2017-05-29T13:07:51.951Z,32.87
2017-05-29T13:08:51.985Z,32.85
2017-05-29T13:09:52.019Z,32.75
2017-05-29T13:10:52.052Z,32.85
2017-05-29T13:12:07.006Z,32.94
2017-05-29T13:12:52.118Z,32.94
2017-05-29T13:13:52.151Z,33.14
2017-05-29T13:14:52.186Z,33.15
2017-05-29T13:16:52.249Z,33.38
2017-05-29T13:17:52.284Z,33.37
2017-05-29T13:18:52.318Z,33.56
2017-05-29T13:19:52.359Z,33.6
2017-05-29T13:20:52.385Z,33.42
2017-05-29T13:21:52.416Z,33.56
2017-05-29T13:22:52.462Z,33.73
2017-05-29T13:23:52.494Z,33.95
2017-05-29T13:25:07.140Z,33.54
2017-05-29T13:25:52.565Z,32.88
2017-05-29T13:26:52.279Z,32.97
2017-05-29T13:28:07.238Z,33.35
2017-05-29T13:28:52.659Z,33.44
2017-05-29T13:29:52.683Z,33.28
2017-05-29T13:30:52.721Z,33.21
2017-05-29T13:31:52.754Z,33.51
2017-05-29T13:33:52.818Z,33.42
2017-05-29T13:34:52.851Z,33.35
2017-05-29T13:35:52.885Z,33.37
2017-05-29T13:36:52.919Z,33.53
2017-05-29T13:37:52.348Z,33.47
2017-05-29T13:38:52.986Z,33.6
2017-05-29T13:39:53.020Z,33.51
2017-05-29T13:40:53.054Z,33.51
2017-05-29T13:41:52.782Z,33.71
2017-05-29T13:42:52.815Z,33.59
2017-05-29T13:44:07.772Z,33.6
2017-05-29T13:44:53.187Z,33.54
2017-05-29T13:45:52.919Z,33.39
2017-05-29T13:46:52.948Z,33.32
2017-05-29T13:47:53.285Z,33.47
2017-05-29T13:48:53.015Z,33.56
2017-05-29T13:49:53.047Z,33.45
2017-05-29T13:50:53.083Z,33.23
2017-05-29T13:51:53.420Z,33.44
2017-05-29T13:53:53.484Z,33.11
2017-05-29T13:55:53.553Z,33.26
2017-05-29T13:56:53.587Z,33.18
2017-05-29T13:57:53.673Z,33.01
2017-05-29T13:59:08.273Z,32.89
2017-05-29T13:59:53.687Z,32.92
2017-05-29T14:00:53.484Z,32.96
2017-05-29T14:01:53.452Z,32.97
2017-05-29T14:02:53.790Z,33.09
2017-05-29T14:03:53.531Z,33.18
2017-05-29T14:04:53.602Z,33.01